Time;durP1;ratioP1;P1;durP2;ratioP2;P2;SDS_P1;SDS_P2;PMS_P1;PMS_P2;Temp;Humidity;BMP_temperature;BMP_pressure;BME280_temperature;BME280_humidity;BME280_pressure;Samples;Min_cycle;Max_cycle;Signal;HPM_P1;HPM_P2
2021/11/28 00:58:27;;;;;;;;;104.00;104.00;;;;;;;;6317033;22;9635;-81
2021/11/28 01:00:46;;;;;;;;;108.60;108.40;;;;;;;;6367113;22;9391;-82
2021/11/28 01:03:44;;;;;;;;;103.80;101.60;;;;;;;;6254123;22;8745;-81
2021/11/28 01:18:59;;;;;;;;;108.00;106.40;;;;;;;;6135019;23;8735;-82
2021/11/28 01:37:49;;;;;;;;;;;;;;;;;;;;;
2021/11/28 01:50:46;;;;;;;;;;;;;;;;;;;;;
2021/11/28 02:00:21;;;;;;;;;95.80;88.40;;;;;;;;5938905;24;8739;-81
2021/11/28 02:03:05;;;;;;;;;;;;;;;;;;;;;
2021/11/28 02:06:45;;;;;;;;;120.17;119.50;;;;;;;;6156934;23;36793;-82
2021/11/28 02:08:40;;;;;;;;;82.60;68.40;;;;;;;;6266194;22;8735;-82
2021/11/28 02:11:21;;;;;;;;;95.40;89.20;;;;;;;;6286006;22;8746;-82
2021/11/28 02:17:19;;;;;;;;;81.40;65.40;;;;;;;;6254666;22;9596;-83
2021/11/28 08:59:26;;;;;;;;;180.00;179.50;;;;;;;;6018712;23;8759;-81
2021/11/28 09:01:54;;;;;;;;;193.40;193.40;;;;;;;;6019133;23;8771;-81
2021/11/28 09:07:37;;;;;;;;;159.40;159.40;;;;;;;;6143221;22;8720;-80
2021/11/28 09:10:03;;;;;;;;;185.00;185.00;;;;;;;;6286550;22;8785;-80
2021/11/28 09:12:31;;;;;;;;;177.80;175.80;;;;;;;;6341993;22;8832;-81
2021/11/28 09:18:35;;;;;;;;;192.00;190.80;;;;;;;;6254805;22;8729;-79
2021/11/28 09:24:47;;;;;;;;;202.60;202.20;;;;;;;;6414572;22;8791;-81
2021/11/28 09:30:44;;;;;;;;;222.75;222.00;;;;;;;;6284812;22;8946;-87
2021/11/28 09:33:09;;;;;;;;;220.00;220.00;;;;;;;;6286627;22;8804;-81
2021/11/28 09:35:47;;;;;;;;;211.00;211.00;;;;;;;;6286373;22;8723;-81
2021/11/28 09:38:13;;;;;;;;;212.20;210.20;;;;;;;;6286238;22;8929;-82
2021/11/28 09:40:40;;;;;;;;;203.33;203.33;;;;;;;;6259947;22;9424;-81
2021/11/28 09:43:41;;;;;;;;;202.75;202.75;;;;;;;;6285936;22;8727;-81
2021/11/28 09:46:17;;;;;;;;;211.20;210.60;;;;;;;;6190449;22;8707;-80
2021/11/28 09:48:49;;;;;;;;;210.80;210.00;;;;;;;;6397964;22;8717;-81
2021/11/28 09:51:27;;;;;;;;;;;;;;;;;;;;;
2021/11/28 09:54:41;;;;;;;;;;;;;;;;;;;;;
2021/11/28 09:59:42;;;;;;;;;229.40;228.80;;;;;;;;6414108;22;8753;-78
2021/11/28 10:02:07;;;;;;;;;212.33;211.33;;;;;;;;6386602;22;8837;-80
2021/11/28 10:04:33;;;;;;;;;199.00;199.00;;;;;;;;6414674;22;8769;-78
2021/11/28 10:06:59;;;;;;;;;222.20;221.20;;;;;;;;6415186;22;8741;-79
2021/11/28 10:09:24;;;;;;;;;207.20;206.80;;;;;;;;6414461;22;8713;-78
2021/11/28 10:12:09;;;;;;;;;195.80;195.80;;;;;;;;6386330;22;8756;-77
2021/11/28 10:14:37;;;;;;;;;197.50;195.33;;;;;;;;6414856;22;8725;-78
2021/11/28 10:17:02;;;;;;;;;214.33;212.33;;;;;;;;6385940;22;8780;-78
2021/11/28 10:19:32;;;;;;;;;204.40;203.40;;;;;;;;6414360;22;8740;-79
2021/11/28 10:21:57;;;;;;;;;206.40;206.00;;;;;;;;6415325;22;8709;-80
2021/11/28 10:24:30;;;;;;;;;210.25;208.00;;;;;;;;6414771;22;8799;-80
2021/11/28 10:26:56;;;;;;;;;228.20;226.60;;;;;;;;6415402;22;11590;-80
2021/11/28 10:29:45;;;;;;;;;229.00;226.50;;;;;;;;6415240;22;8765;-80
2021/11/28 10:32:14;;;;;;;;;214.20;211.80;;;;;;;;6414683;22;11617;-79
2021/11/28 10:34:39;;;;;;;;;220.67;219.67;;;;;;;;6414523;22;11484;-79
2021/11/28 10:37:09;;;;;;;;;223.50;222.50;;;;;;;;6414504;22;8744;-79
2021/11/28 10:39:40;;;;;;;;;214.40;214.20;;;;;;;;6413691;22;11509;-80
2021/11/28 10:42:05;;;;;;;;;214.67;214.33;;;;;;;;6414884;22;11567;-78
2021/11/28 10:44:31;;;;;;;;;213.40;212.60;;;;;;;;6385845;22;8768;-79
2021/11/28 10:47:13;;;;;;;;;217.50;217.50;;;;;;;;6386457;22;8794;-80
2021/11/28 10:49:39;;;;;;;;;220.00;220.00;;;;;;;;6415070;22;8748;-79
2021/11/28 10:52:10;;;;;;;;;222.80;221.60;;;;;;;;6415208;22;8721;-80
2021/11/28 10:54:40;;;;;;;;;229.50;228.50;;;;;;;;6414957;22;8705;-79
2021/11/28 10:57:05;;;;;;;;;234.40;234.00;;;;;;;;6414881;22;8689;-80
2021/11/28 10:59:31;;;;;;;;;235.00;235.00;;;;;;;;6414326;22;8905;-82
2021/11/28 11:01:56;;;;;;;;;247.40;244.60;;;;;;;;6414763;22;8851;-81
2021/11/28 11:04:22;;;;;;;;;242.40;242.40;;;;;;;;6387625;22;11596;-82
2021/11/28 11:07:07;;;;;;;;;217.60;216.00;;;;;;;;6416584;22;8752;-81
2021/11/28 11:09:42;;;;;;;;;229.50;228.83;;;;;;;;6414969;22;8750;-82
2021/11/28 11:12:42;;;;;;;;;;;;;;;;;;;;;
2021/11/28 11:15:10;;;;;;;;;250.50;248.00;;;;;;;;6409260;22;35395;-83
2021/11/28 11:18:08;;;;;;;;;313.50;302.00;;;;;;;;6414163;22;8752;-83
2021/11/28 11:26:48;;;;;;;;;250.50;246.33;;;;;;;;6394239;22;8685;-82
2021/11/28 11:29:15;;;;;;;;;243.00;239.25;;;;;;;;6414555;22;8717;-82
2021/11/28 11:31:44;;;;;;;;;249.33;247.83;;;;;;;;6414517;22;8792;-83
2021/11/28 11:34:29;;;;;;;;;269.67;268.83;;;;;;;;6414630;22;8721;-83
2021/11/28 11:36:57;;;;;;;;;287.40;284.80;;;;;;;;6414762;22;8721;-83
2021/11/28 11:39:23;;;;;;;;;352.00;340.33;;;;;;;;6386332;22;8849;-83
2021/11/28 11:41:48;;;;;;;;;248.00;248.00;;;;;;;;6414906;22;8767;-82
2021/11/28 11:44:16;;;;;;;;;265.00;264.00;;;;;;;;6414484;22;8749;-83
2021/11/28 11:46:45;;;;;;;;;292.83;291.50;;;;;;;;6413835;22;8709;-82
2021/11/28 11:49:12;;;;;;;;;226.20;224.80;;;;;;;;6413993;22;11552;-82
2021/11/28 11:51:37;;;;;;;;;227.80;226.20;;;;;;;;6415118;22;8806;-81
2021/11/28 11:54:05;;;;;;;;;227.40;227.00;;;;;;;;6416259;22;8729;-80
2021/11/28 11:56:30;;;;;;;;;269.00;266.60;;;;;;;;6415476;22;8713;-80
2021/11/28 11:59:14;;;;;;;;;297.60;296.60;;;;;;;;6415686;22;9436;-80
2021/11/28 12:01:40;;;;;;;;;234.67;233.50;;;;;;;;6416116;22;8811;-80
2021/11/28 12:04:05;;;;;;;;;265.20;260.80;;;;;;;;6416110;22;8863;-79
2021/11/28 12:06:47;;;;;;;;;237.25;235.50;;;;;;;;6416154;22;8776;-80
2021/11/28 12:09:34;;;;;;;;;209.80;209.60;;;;;;;;6415780;22;11307;-79
2021/11/28 12:12:01;;;;;;;;;210.00;209.00;;;;;;;;6415973;22;8829;-80
2021/11/28 12:14:27;;;;;;;;;195.00;195.00;;;;;;;;6415221;22;9358;-79
2021/11/28 12:16:52;;;;;;;;;203.80;203.80;;;;;;;;6388844;22;8794;-78
2021/11/28 12:19:50;;;;;;;;;178.25;178.25;;;;;;;;6415826;22;8841;-80
2021/11/28 12:22:34;;;;;;;;;185.00;185.00;;;;;;;;6361849;22;8779;-79
2021/11/28 12:25:18;;;;;;;;;197.80;195.60;;;;;;;;6415620;22;8772;-79
2021/11/28 12:27:49;;;;;;;;;144.00;141.60;;;;;;;;6415361;22;9149;-80
2021/11/28 12:30:34;;;;;;;;;183.33;183.00;;;;;;;;6415746;22;8737;-80
2021/11/28 12:32:59;;;;;;;;;194.67;193.17;;;;;;;;6415746;22;8725;-80
2021/11/28 12:35:37;;;;;;;;;158.80;158.40;;;;;;;;6415665;22;8745;-79
2021/11/28 12:38:02;;;;;;;;;164.20;159.80;;;;;;;;6415924;22;8721;-79
2021/11/28 12:40:30;;;;;;;;;127.25;126.25;;;;;;;;6415654;22;8752;-79
2021/11/28 12:42:56;;;;;;;;;140.60;138.80;;;;;;;;6415969;22;8801;-79
2021/11/28 12:45:29;;;;;;;;;135.20;135.00;;;;;;;;6415670;22;9688;-78
2021/11/28 12:48:01;;;;;;;;;91.50;80.00;;;;;;;;6416453;22;8736;-78
2021/11/28 12:50:26;;;;;;;;;110.33;106.83;;;;;;;;6414689;22;11510;-77
2021/11/28 12:52:52;;;;;;;;;93.00;82.67;;;;;;;;6416143;22;8737;-78
2021/11/28 12:55:26;;;;;;;;;115.80;115.80;;;;;;;;6415681;22;8798;-77
2021/11/28 12:57:58;;;;;;;;;93.40;81.80;;;;;;;;6416163;22;9594;-77
2021/11/28 13:00:24;;;;;;;;;83.20;68.40;;;;;;;;6415141;22;8809;-77
2021/11/28 13:02:50;;;;;;;;;81.75;66.25;;;;;;;;6416272;22;8749;-76
2021/11/28 13:05:39;;;;;;;;;83.80;67.80;;;;;;;;6415587;22;9043;-76
2021/11/28 13:08:04;;;;;;;;;83.00;68.20;;;;;;;;6416190;22;8725;-76
2021/11/28 13:10:36;;;;;;;;;87.75;73.50;;;;;;;;6415695;22;8836;-76
2021/11/28 13:13:03;;;;;;;;;100.67;94.67;;;;;;;;6416098;22;8832;-76
2021/11/28 13:15:30;;;;;;;;;82.60;67.60;;;;;;;;6415044;22;9776;-76
2021/11/28 13:17:57;;;;;;;;;97.00;89.20;;;;;;;;6416388;22;8697;-76
2021/11/28 13:20:22;;;;;;;;;110.20;100.00;;;;;;;;6415640;22;8886;-77
2021/11/28 13:22:48;;;;;;;;;101.75;92.75;;;;;;;;6415983;22;8749;-77
2021/11/28 13:25:23;;;;;;;;;93.60;82.20;;;;;;;;6415823;22;8795;-75
2021/11/28 13:27:49;;;;;;;;;105.00;100.75;;;;;;;;6415957;22;10039;-74
2021/11/28 13:30:19;;;;;;;;;98.00;91.00;;;;;;;;6416177;22;8839;-75
2021/11/28 13:32:44;;;;;;;;;92.60;83.40;;;;;;;;6415449;22;8725;-75
2021/11/28 13:35:16;;;;;;;;;93.60;81.40;;;;;;;;6415550;22;8770;-76
2021/11/28 13:37:41;;;;;;;;;99.00;93.80;;;;;;;;6415634;22;8692;-75
2021/11/28 13:40:12;;;;;;;;;99.00;89.75;;;;;;;;6415515;22;8828;-75
2021/11/28 13:42:43;;;;;;;;;105.00;102.25;;;;;;;;6415078;22;8744;-74
2021/11/28 13:45:11;;;;;;;;;88.50;72.00;;;;;;;;6415696;22;8894;-75
2021/11/28 13:47:37;;;;;;;;;109.80;99.60;;;;;;;;6415696;22;8795;-75
2021/11/28 13:50:09;;;;;;;;;97.50;85.50;;;;;;;;6415542;22;8737;-75
2021/11/28 13:52:35;;;;;;;;;87.75;73.75;;;;;;;;6415409;22;8816;-75
2021/11/28 13:55:01;;;;;;;;;96.00;87.25;;;;;;;;6415435;22;12325;-75
2021/11/28 13:57:26;;;;;;;;;77.25;61.00;;;;;;;;6415437;22;8838;-75
2021/11/28 13:59:56;;;;;;;;;78.50;61.25;;;;;;;;6386873;22;8804;-75
2021/11/28 14:02:25;;;;;;;;;90.60;76.80;;;;;;;;6415638;22;8748;-75
2021/11/28 14:04:54;;;;;;;;;83.75;68.25;;;;;;;;6415773;22;8776;-75
2021/11/28 14:07:20;;;;;;;;;77.00;63.80;;;;;;;;6415340;22;11483;-75
2021/11/28 14:09:46;;;;;;;;;73.25;60.50;;;;;;;;6415640;22;8745;-75
2021/11/28 14:12:22;;;;;;;;;80.25;66.75;;;;;;;;6415704;22;8749;-75
2021/11/28 14:14:55;;;;;;;;;78.75;65.00;;;;;;;;6415083;22;8749;-76
2021/11/28 14:17:21;;;;;;;;;78.25;64.00;;;;;;;;6414598;22;8745;-75
2021/11/28 14:19:46;;;;;;;;;80.00;65.00;;;;;;;;6415968;22;8802;-76
2021/11/28 14:22:22;;;;;;;;;78.50;63.50;;;;;;;;6415937;22;8733;-75
2021/11/28 14:24:47;;;;;;;;;82.00;67.25;;;;;;;;6415652;22;8753;-75
2021/11/28 14:27:13;;;;;;;;;80.75;66.50;;;;;;;;6416025;22;8831;-75
2021/11/28 14:29:39;;;;;;;;;81.60;67.40;;;;;;;;6415274;22;11510;-75
2021/11/28 14:32:04;;;;;;;;;80.75;65.75;;;;;;;;6415319;22;8837;-76
2021/11/28 14:34:29;;;;;;;;;81.50;67.00;;;;;;;;6415742;22;8832;-75
2021/11/28 14:36:55;;;;;;;;;73.50;60.25;;;;;;;;6415953;22;9717;-75
2021/11/28 14:39:37;;;;;;;;;92.75;82.50;;;;;;;;6415673;22;8741;-75
2021/11/28 14:42:17;;;;;;;;;89.00;76.20;;;;;;;;6415931;22;8725;-75
2021/11/28 14:44:45;;;;;;;;;99.00;90.00;;;;;;;;6415307;22;8779;-75
2021/11/28 14:47:24;;;;;;;;;90.60;74.80;;;;;;;;6415810;22;8713;-75
2021/11/28 14:49:51;;;;;;;;;67.20;56.60;;;;;;;;6415837;22;8821;-75
2021/11/28 14:52:26;;;;;;;;;89.00;74.67;;;;;;;;6415977;22;8845;-75
2021/11/28 14:54:52;;;;;;;;;86.80;71.20;;;;;;;;6415829;22;10630;-75
2021/11/28 14:57:23;;;;;;;;;74.40;60.60;;;;;;;;6415505;22;8729;-75
2021/11/28 14:59:52;;;;;;;;;91.00;73.50;;;;;;;;6415557;22;8729;-75
2021/11/28 15:02:18;;;;;;;;;78.50;64.00;;;;;;;;6414039;22;8735;-75
2021/11/28 15:04:44;;;;;;;;;80.00;66.33;;;;;;;;6415343;22;8768;-75
2021/11/28 15:07:14;;;;;;;;;96.20;81.60;;;;;;;;6415286;22;11463;-75
2021/11/28 15:09:45;;;;;;;;;40.25;39.50;;;;;;;;6415214;22;8720;-75
2021/11/28 15:12:21;;;;;;;;;75.50;63.00;;;;;;;;6415490;22;8729;-75
2021/11/28 15:14:48;;;;;;;;;69.00;58.00;;;;;;;;6415121;22;8737;-75
2021/11/28 15:17:14;;;;;;;;;92.75;75.25;;;;;;;;6414949;22;10908;-75
2021/11/28 15:19:39;;;;;;;;;74.67;61.00;;;;;;;;6415249;22;8794;-75
2021/11/28 15:22:04;;;;;;;;;89.75;69.50;;;;;;;;6415303;22;8775;-75
2021/11/28 15:24:30;;;;;;;;;87.25;69.25;;;;;;;;6415624;22;8784;-75
2021/11/28 15:26:56;;;;;;;;;54.75;47.50;;;;;;;;6415835;22;8792;-75
2021/11/28 15:29:22;;;;;;;;;64.25;55.00;;;;;;;;6416883;22;8717;-75
2021/11/28 15:31:48;;;;;;;;;89.00;74.75;;;;;;;;6416517;22;8722;-75
2021/11/28 15:34:13;;;;;;;;;57.25;49.75;;;;;;;;6417361;22;8772;-75
2021/11/28 15:36:38;;;;;;;;;74.67;62.33;;;;;;;;6416498;22;8737;-75
2021/11/28 15:39:05;;;;;;;;;76.00;61.33;;;;;;;;6417063;22;8872;-75
2021/11/28 15:41:30;;;;;;;;;71.20;58.80;;;;;;;;6387439;22;9647;-75
2021/11/28 15:43:56;;;;;;;;;78.50;62.00;;;;;;;;6416652;22;8737;-74
2021/11/28 15:46:21;;;;;;;;;67.00;57.50;;;;;;;;6416919;22;8747;-75
2021/11/28 15:48:46;;;;;;;;;71.33;58.67;;;;;;;;6387788;22;8757;-75
2021/11/28 15:51:12;;;;;;;;;69.00;58.00;;;;;;;;6416786;22;8766;-75
2021/11/28 15:53:38;;;;;;;;;80.00;62.67;;;;;;;;6416581;22;8804;-75
2021/11/28 15:56:03;;;;;;;;;87.00;69.20;;;;;;;;6416875;22;8820;-75
2021/11/28 15:58:29;;;;;;;;;58.00;50.50;;;;;;;;6416303;22;8818;-75
2021/11/28 16:00:55;;;;;;;;;78.80;63.40;;;;;;;;6416630;22;8717;-75
2021/11/28 16:03:20;;;;;;;;;82.25;67.00;;;;;;;;6388053;22;8745;-74
2021/11/28 16:05:45;;;;;;;;;98.00;76.00;;;;;;;;6416376;22;8768;-76
2021/11/28 16:08:10;;;;;;;;;75.00;57.00;;;;;;;;6416563;22;8772;-77
2021/11/28 16:10:36;;;;;;;;;67.50;57.75;;;;;;;;6416404;22;8733;-77
2021/11/28 16:13:01;;;;;;;;;77.00;60.67;;;;;;;;6387698;22;8760;-77
2021/11/28 16:15:27;;;;;;;;;76.00;59.67;;;;;;;;6387115;22;8791;-77
2021/11/28 16:17:52;;;;;;;;;72.50;59.50;;;;;;;;6386597;22;8749;-77
2021/11/28 16:20:17;;;;;;;;;69.75;59.50;;;;;;;;6387180;22;8769;-76
2021/11/28 16:22:43;;;;;;;;;101.25;86.75;;;;;;;;6416054;22;8729;-76
2021/11/28 16:25:09;;;;;;;;;66.75;55.75;;;;;;;;6416585;22;8776;-75
2021/11/28 16:27:35;;;;;;;;;60.00;50.20;;;;;;;;6416551;22;8827;-77
2021/11/28 16:30:02;;;;;;;;;67.25;54.75;;;;;;;;6416450;22;8733;-76
2021/11/28 16:32:28;;;;;;;;;71.50;59.50;;;;;;;;6416444;22;8749;-75
2021/11/28 16:34:55;;;;;;;;;98.33;83.33;;;;;;;;6416660;22;8736;-76
2021/11/28 16:37:20;;;;;;;;;68.25;56.50;;;;;;;;6416719;22;8733;-76
2021/11/28 16:39:46;;;;;;;;;85.00;68.00;;;;;;;;6386796;22;8777;-76
2021/11/28 16:42:11;;;;;;;;;77.50;63.00;;;;;;;;6387085;22;8799;-76
2021/11/28 16:44:36;;;;;;;;;71.50;59.50;;;;;;;;6416024;22;8828;-77
2021/11/28 16:47:02;;;;;;;;;62.00;52.25;;;;;;;;6416224;22;8761;-77
2021/11/28 16:49:27;;;;;;;;;74.00;60.75;;;;;;;;6416026;22;8757;-77
2021/11/28 16:51:53;;;;;;;;;79.00;64.50;;;;;;;;6416229;22;8825;-77
2021/11/28 16:54:18;;;;;;;;;95.33;81.33;;;;;;;;6416162;22;8756;-77
2021/11/28 16:56:43;;;;;;;;;75.00;62.67;;;;;;;;6415886;22;11536;-77
2021/11/28 16:59:09;;;;;;;;;65.50;55.75;;;;;;;;6416154;22;8755;-77
2021/11/28 17:01:35;;;;;;;;;75.75;61.25;;;;;;;;6415442;22;8745;-78
2021/11/28 17:04:01;;;;;;;;;73.75;61.00;;;;;;;;6416276;22;9581;-77
2021/11/28 17:06:27;;;;;;;;;71.75;60.25;;;;;;;;6415249;22;11466;-78
2021/11/28 17:08:52;;;;;;;;;81.50;67.50;;;;;;;;6416382;22;8757;-78
2021/11/28 17:20:59;;;;;;;;;64.00;55.33;;;;;;;;6256005;22;8742;-79
2021/11/28 17:39:17;;;;;;;;;72.33;60.67;;;;;;;;6195650;23;8735;-79
2021/11/28 17:45:07;;;;;;;;;67.50;58.25;;;;;;;;6110200;23;8799;-80
2021/11/28 17:47:48;;;;;;;;;67.25;57.25;;;;;;;;6194238;23;8769;-79
2021/11/28 17:50:14;;;;;;;;;74.50;61.75;;;;;;;;6220587;22;8822;-79
2021/11/28 17:52:43;;;;;;;;;72.00;60.25;;;;;;;;6255046;22;8850;-78
2021/11/28 17:55:10;;;;;;;;;89.75;75.25;;;;;;;;6255586;22;8728;-78
2021/11/28 17:57:38;;;;;;;;;66.00;56.25;;;;;;;;6262068;22;8724;-79
2021/11/28 18:00:08;;;;;;;;;73.33;61.33;;;;;;;;6349946;22;9505;-78
2021/11/28 18:02:42;;;;;;;;;87.25;71.00;;;;;;;;6348416;22;8738;-79
2021/11/28 18:05:23;;;;;;;;;54.20;48.00;;;;;;;;6349087;22;8786;-79
2021/11/28 18:11:16;;;;;;;;;56.67;49.00;;;;;;;;6255148;22;8734;-79
2021/11/28 18:14:03;;;;;;;;;83.20;67.60;;;;;;;;6280984;22;11238;-79
2021/11/28 18:22:59;;;;;;;;;82.50;67.50;;;;;;;;6225397;23;8739;-79
2021/11/28 18:25:24;;;;;;;;;76.25;63.50;;;;;;;;6244620;22;8883;-79
2021/11/28 18:27:50;;;;;;;;;83.80;68.20;;;;;;;;6259838;22;8771;-78
2021/11/28 18:30:18;;;;;;;;;99.75;92.50;;;;;;;;6347408;22;8784;-78
2021/11/28 18:32:45;;;;;;;;;77.40;64.80;;;;;;;;6354472;22;8784;-79
2021/11/28 18:35:13;;;;;;;;;65.80;55.60;;;;;;;;6354966;22;8838;-79
2021/11/28 18:38:05;;;;;;;;;70.00;58.60;;;;;;;;6381702;22;8678;-80
2021/11/28 18:40:30;;;;;;;;;61.00;52.25;;;;;;;;6354428;22;8706;-79
2021/11/28 18:42:55;;;;;;;;;45.67;42.67;;;;;;;;6383334;22;9390;-79
2021/11/28 18:45:21;;;;;;;;;58.67;50.33;;;;;;;;6383651;22;10067;-79
2021/11/28 18:47:49;;;;;;;;;101.20;95.40;;;;;;;;6383228;22;11417;-79
2021/11/28 18:50:15;;;;;;;;;23.75;22.50;;;;;;;;6354515;22;9292;-79
2021/11/28 18:52:41;;;;;;;;;83.40;68.40;;;;;;;;6383308;22;8958;-79
2021/11/28 18:55:07;;;;;;;;;55.67;49.00;;;;;;;;6383525;22;8749;-78
2021/11/28 18:57:33;;;;;;;;;73.00;60.25;;;;;;;;6382893;22;8798;-78
2021/11/28 19:00:01;;;;;;;;;72.33;59.00;;;;;;;;6383585;22;8745;-78
2021/11/28 19:02:27;;;;;;;;;113.83;113.83;;;;;;;;6353886;22;8833;-78
2021/11/28 19:04:58;;;;;;;;;82.00;67.25;;;;;;;;6383717;22;8858;-79
2021/11/28 19:07:23;;;;;;;;;79.75;65.50;;;;;;;;6355066;22;8726;-78
2021/11/28 19:09:51;;;;;;;;;86.25;70.50;;;;;;;;6383496;22;8834;-79
2021/11/28 19:12:17;;;;;;;;;88.60;71.40;;;;;;;;6354714;22;8662;-78
2021/11/28 19:14:54;;;;;;;;;;;;;;;;;;;;;
2021/11/28 19:17:20;;;;;;;;;134.50;134.25;;;;;;;;6382260;22;36007;-78
2021/11/28 19:19:45;;;;;;;;;95.50;83.75;;;;;;;;6357236;22;8737;-78
2021/11/28 19:22:11;;;;;;;;;135.25;135.25;;;;;;;;6415153;22;8761;-78
2021/11/28 19:24:36;;;;;;;;;114.00;113.75;;;;;;;;6415007;22;8856;-78
2021/11/28 19:27:02;;;;;;;;;123.00;123.00;;;;;;;;6385250;22;8851;-78
2021/11/28 19:29:27;;;;;;;;;94.00;82.20;;;;;;;;6414703;22;8737;-78
2021/11/28 19:31:53;;;;;;;;;104.20;101.20;;;;;;;;6415546;22;8749;-78
2021/11/28 19:34:21;;;;;;;;;92.40;78.20;;;;;;;;6415572;22;8785;-78
2021/11/28 19:36:47;;;;;;;;;108.20;105.80;;;;;;;;6414834;22;9607;-78
2021/11/28 19:39:14;;;;;;;;;96.80;82.40;;;;;;;;6386565;22;8752;-79
2021/11/28 19:41:41;;;;;;;;;82.25;66.00;;;;;;;;6414692;22;8736;-78
2021/11/28 19:44:07;;;;;;;;;127.60;127.20;;;;;;;;6414578;22;8740;-78
2021/11/28 19:46:35;;;;;;;;;87.67;72.67;;;;;;;;6415094;22;11525;-79
2021/11/28 19:49:19;;;;;;;;;79.60;66.60;;;;;;;;6386349;22;11552;-79
2021/11/28 19:51:44;;;;;;;;;77.40;64.40;;;;;;;;6414610;22;8693;-78
2021/11/28 19:54:10;;;;;;;;;81.25;66.75;;;;;;;;6417568;22;8835;-78
2021/11/28 19:56:35;;;;;;;;;65.67;55.67;;;;;;;;6415167;22;8753;-79
2021/11/28 19:59:04;;;;;;;;;65.33;55.33;;;;;;;;6386075;22;8757;-79
2021/11/28 20:01:30;;;;;;;;;97.50;89.00;;;;;;;;6414814;22;8717;-78
2021/11/28 20:03:56;;;;;;;;;80.75;67.00;;;;;;;;6415279;22;8824;-78
2021/11/28 20:06:24;;;;;;;;;84.75;70.50;;;;;;;;6415116;22;9484;-79
2021/11/28 20:08:53;;;;;;;;;70.80;57.00;;;;;;;;6386402;22;8733;-78
2021/11/28 20:11:19;;;;;;;;;74.60;62.60;;;;;;;;6414789;22;8729;-78
2021/11/28 20:13:55;;;;;;;;;79.67;65.00;;;;;;;;6414551;22;8744;-78
2021/11/28 20:16:20;;;;;;;;;111.80;111.00;;;;;;;;6387310;22;8775;-78
2021/11/28 20:18:45;;;;;;;;;82.25;66.75;;;;;;;;6416614;22;9406;-78
2021/11/28 20:21:32;;;;;;;;;83.50;69.25;;;;;;;;6415165;22;8892;-78
2021/11/28 20:23:57;;;;;;;;;84.00;68.40;;;;;;;;6370964;22;8728;-78
2021/11/28 20:26:43;;;;;;;;;86.00;70.33;;;;;;;;6416404;22;8780;-78
2021/11/28 20:29:09;;;;;;;;;81.40;67.00;;;;;;;;6415693;22;8694;-77
2021/11/28 20:31:35;;;;;;;;;84.00;69.20;;;;;;;;6386885;22;9939;-78
2021/11/28 20:34:00;;;;;;;;;88.75;71.50;;;;;;;;6387267;22;8697;-78
2021/11/28 20:36:27;;;;;;;;;68.00;58.00;;;;;;;;6416475;22;8729;-78
2021/11/28 20:38:52;;;;;;;;;87.00;71.75;;;;;;;;6387780;22;9304;-78
2021/11/28 20:41:18;;;;;;;;;85.25;69.50;;;;;;;;6416519;22;8775;-78
2021/11/28 20:43:44;;;;;;;;;77.00;63.25;;;;;;;;6415177;22;8705;-79
2021/11/28 20:46:09;;;;;;;;;96.33;85.00;;;;;;;;6415738;22;8784;-78
2021/11/28 20:48:35;;;;;;;;;88.00;71.25;;;;;;;;6386900;22;8733;-76
2021/11/28 20:51:04;;;;;;;;;82.80;68.00;;;;;;;;6416589;22;8767;-76
2021/11/28 20:53:30;;;;;;;;;83.00;67.00;;;;;;;;6416245;22;9670;-77
2021/11/28 20:55:55;;;;;;;;;86.75;71.00;;;;;;;;6416904;22;8764;-77
2021/11/28 20:58:20;;;;;;;;;87.67;70.67;;;;;;;;6415236;22;8745;-76
2021/11/28 21:00:46;;;;;;;;;83.50;68.25;;;;;;;;6386957;22;8816;-75
2021/11/28 21:03:12;;;;;;;;;73.50;61.25;;;;;;;;6415719;22;8733;-76
2021/11/28 21:05:38;;;;;;;;;87.75;72.50;;;;;;;;6415940;22;8805;-77
2021/11/28 21:08:14;;;;;;;;;87.00;71.40;;;;;;;;6387517;22;8768;-81
2021/11/28 21:10:42;;;;;;;;;71.00;58.40;;;;;;;;6416009;22;8666;-80
2021/11/28 21:13:08;;;;;;;;;82.00;66.60;;;;;;;;6384157;22;8752;-78
2021/11/28 21:15:34;;;;;;;;;79.00;66.00;;;;;;;;6414185;22;8755;-78
2021/11/28 21:18:00;;;;;;;;;89.40;74.20;;;;;;;;6415815;22;8732;-78
2021/11/28 21:20:38;;;;;;;;;72.00;60.75;;;;;;;;6378963;22;8762;-79
2021/11/28 21:23:33;;;;;;;;;83.33;69.00;;;;;;;;6381415;22;8757;-78
2021/11/28 21:26:00;;;;;;;;;84.00;69.33;;;;;;;;6383587;22;10374;-78
2021/11/28 21:28:25;;;;;;;;;79.25;65.00;;;;;;;;6382935;22;10598;-79
2021/11/28 21:41:18;;;;;;;;;;;;;;;;;;;;;
2021/11/28 21:43:18;;;;;;;;;91.20;74.00;;;;;;;;6297609;22;8753;-78
2021/11/28 21:45:50;;;;;;;;;67.50;57.50;;;;;;;;6383474;22;8746;-78
2021/11/28 21:48:37;;;;;;;;;52.50;44.75;;;;;;;;6381481;22;8829;-79
2021/11/28 21:54:44;;;;;;;;;47.20;42.40;;;;;;;;6383610;22;11548;-79
2021/11/28 22:05:07;;;;;;;;;52.33;47.00;;;;;;;;6164188;23;9521;-80
2021/11/28 22:36:29;;;;;;;;;6.25;4.00;;;;;;;;6382953;22;8657;-77
2021/11/28 22:38:55;;;;;;;;;45.00;42.00;;;;;;;;6384174;22;8930;-77
2021/11/28 22:41:20;;;;;;;;;71.00;60.25;;;;;;;;6384054;22;8744;-77
2021/11/28 22:43:46;;;;;;;;;11.50;11.50;;;;;;;;6383503;22;8820;-77
2021/11/28 22:46:12;;;;;;;;;37.00;36.50;;;;;;;;6383849;22;8768;-77
2021/11/28 22:48:41;;;;;;;;;65.50;56.25;;;;;;;;6383493;22;8743;-77
2021/11/28 22:51:06;;;;;;;;;47.80;42.80;;;;;;;;6383932;22;8891;-77
2021/11/28 22:53:32;;;;;;;;;32.25;27.50;;;;;;;;6383720;22;8797;-77
2021/11/28 22:55:58;;;;;;;;;52.50;47.50;;;;;;;;6384171;22;8724;-77
2021/11/28 22:58:24;;;;;;;;;45.00;41.25;;;;;;;;6383529;22;8781;-77
2021/11/28 23:00:52;;;;;;;;;10.50;5.00;;;;;;;;6383997;22;9768;-77
2021/11/28 23:03:18;;;;;;;;;6.80;5.00;;;;;;;;6383916;22;11417;-77
2021/11/28 23:05:43;;;;;;;;;49.50;43.75;;;;;;;;6383141;22;8801;-77
2021/11/28 23:08:08;;;;;;;;;9.25;8.00;;;;;;;;6383952;22;8864;-76
2021/11/28 23:10:34;;;;;;;;;39.50;37.50;;;;;;;;6354847;22;8829;-77
2021/11/28 23:12:59;;;;;;;;;62.00;51.50;;;;;;;;6383561;22;8744;-77
2021/11/28 23:15:24;;;;;;;;;78.50;66.25;;;;;;;;6354772;22;8767;-77
2021/11/28 23:17:50;;;;;;;;;59.50;51.00;;;;;;;;6383611;22;9079;-77
2021/11/28 23:20:15;;;;;;;;;46.67;43.67;;;;;;;;6383653;22;8756;-77
2021/11/28 23:22:41;;;;;;;;;20.25;19.25;;;;;;;;6383201;22;8744;-77
2021/11/28 23:25:07;;;;;;;;;15.60;15.60;;;;;;;;6383698;22;9757;-77
2021/11/28 23:27:33;;;;;;;;;29.75;25.00;;;;;;;;6383433;22;8763;-77
2021/11/28 23:29:58;;;;;;;;;6.00;5.75;;;;;;;;6383032;22;9039;-78
2021/11/28 23:32:24;;;;;;;;;19.00;15.00;;;;;;;;6383421;22;9089;-77
2021/11/28 23:34:50;;;;;;;;;21.25;20.75;;;;;;;;6383542;22;8789;-77
2021/11/28 23:37:16;;;;;;;;;52.40;48.20;;;;;;;;6383668;22;8724;-77
2021/11/28 23:39:41;;;;;;;;;78.00;63.67;;;;;;;;6383384;22;8763;-77
2021/11/28 23:42:06;;;;;;;;;10.00;9.75;;;;;;;;6382909;22;9499;-77
2021/11/28 23:44:32;;;;;;;;;77.33;64.33;;;;;;;;6383149;22;8759;-78
2021/11/28 23:46:57;;;;;;;;;82.67;68.00;;;;;;;;6354714;22;8796;-77
2021/11/28 23:49:22;;;;;;;;;76.00;62.25;;;;;;;;6384588;22;8794;-77
2021/11/28 23:51:48;;;;;;;;;42.50;38.00;;;;;;;;6384966;22;8748;-77
2021/11/28 23:54:13;;;;;;;;;62.50;53.25;;;;;;;;6384773;22;8800;-76
2021/11/28 23:56:39;;;;;;;;;71.75;59.75;;;;;;;;6384933;22;8752;-77
2021/11/28 23:59:05;;;;;;;;;80.20;66.80;;;;;;;;6384413;22;8760;-77
